sensor_id;sensor_type;location;lat;lon;timestamp;pressure;altitude;pressure_sealevel;temperature;humidity
7940;BME280;4015;48.888;9.226;2023-04-21T00:02:04;156740.38;;;5.94;96.10
7940;BME280;4015;48.888;9.226;2023-04-21T00:04:30;156735.28;;;5.92;95.47
7940;BME280;4015;48.888;9.226;2023-04-21T00:06:56;156713.56;;;5.83;95.86
7940;BME280;4015;48.888;9.226;2023-04-21T00:09:22;156723.78;;;5.87;95.70
7940;BME280;4015;48.888;9.226;2023-04-21T00:11:48;156726.31;;;5.88;96.03
7940;BME280;4015;48.888;9.226;2023-04-21T00:14:13;156734.03;;;5.91;95.65
7940;BME280;4015;48.888;9.226;2023-04-21T00:16:38;156732.75;;;5.91;95.72
7940;BME280;4015;48.888;9.226;2023-04-21T00:19:04;156750.56;;;5.98;96.31
7940;BME280;4015;48.888;9.226;2023-04-21T00:21:34;156708.47;;;5.81;97.38
7940;BME280;4015;48.888;9.226;2023-04-21T00:23:59;156718.69;;;5.85;97.17
7940;BME280;4015;48.888;9.226;2023-04-21T00:26:25;156722.50;;;5.87;97.71
7940;BME280;4015;48.888;9.226;2023-04-21T00:28:50;156721.22;;;5.86;97.61
7940;BME280;4015;48.888;9.226;2023-04-21T00:31:16;156726.31;;;5.88;97.98
7940;BME280;4015;48.888;9.226;2023-04-21T00:33:41;156732.75;;;5.91;97.87
7940;BME280;4015;48.888;9.226;2023-04-21T00:36:06;156736.56;;;5.92;97.60
7940;BME280;4015;48.888;9.226;2023-04-21T00:38:32;156739.09;;;5.93;97.73
7940;BME280;4015;48.888;9.226;2023-04-21T00:40:57;156731.38;;;5.90;97.59
7940;BME280;4015;48.888;9.226;2023-04-21T00:43:23;156728.84;;;5.89;97.55
7940;BME280;4015;48.888;9.226;2023-04-21T00:45:50;156730.13;;;5.90;96.88
7940;BME280;4015;48.888;9.226;2023-04-21T00:48:15;156717.41;;;5.85;97.04
7940;BME280;4015;48.888;9.226;2023-04-21T00:50:41;156717.41;;;5.85;96.59
7940;BME280;4015;48.888;9.226;2023-04-21T00:53:06;156704.69;;;5.80;96.37
7940;BME280;4015;48.888;9.226;2023-04-21T00:55:32;156707.22;;;5.81;96.39
7940;BME280;4015;48.888;9.226;2023-04-21T00:57:58;156691.94;;;5.75;96.46
7940;BME280;4015;48.888;9.226;2023-04-21T01:00:25;156688.13;;;5.73;97.23
7940;BME280;4015;48.888;9.226;2023-04-21T01:02:50;156689.41;;;5.74;96.59
7940;BME280;4015;48.888;9.226;2023-04-21T01:05:15;156675.38;;;5.68;96.73
7940;BME280;4015;48.888;9.226;2023-04-21T01:07:42;156679.19;;;5.69;97.08
7940;BME280;4015;48.888;9.226;2023-04-21T01:10:08;156672.84;;;5.67;96.95
7940;BME280;4015;48.888;9.226;2023-04-21T01:12:43;156655.03;;;5.60;96.79
7940;BME280;4015;48.888;9.226;2023-04-21T01:15:11;156655.03;;;5.60;96.96
7940;BME280;4015;48.888;9.226;2023-04-21T01:17:37;156666.44;;;5.64;96.79
7940;BME280;4015;48.888;9.226;2023-04-21T01:20:05;156665.19;;;5.64;96.80
7940;BME280;4015;48.888;9.226;2023-04-21T01:22:36;156651.16;;;5.58;96.88
7940;BME280;4015;48.888;9.226;2023-04-21T01:25:02;156642.28;;;5.55;96.73
7940;BME280;4015;48.888;9.226;2023-04-21T01:27:27;156649.91;;;5.58;97.08
7940;BME280;4015;48.888;9.226;2023-04-21T01:29:53;156643.56;;;5.55;97.23
7940;BME280;4015;48.888;9.226;2023-04-21T01:32:22;156644.84;;;5.56;97.06
7940;BME280;4015;48.888;9.226;2023-04-21T01:34:48;156641.03;;;5.54;97.51
7940;BME280;4015;48.888;9.226;2023-04-21T01:37:16;156642.28;;;5.55;97.23
7940;BME280;4015;48.888;9.226;2023-04-21T01:39:46;156619.34;;;5.46;96.89
7940;BME280;4015;48.888;9.226;2023-04-21T01:42:11;156614.28;;;5.44;97.43
7940;BME280;4015;48.888;9.226;2023-04-21T01:44:37;156613.00;;;5.43;97.11
7940;BME280;4015;48.888;9.226;2023-04-21T01:47:04;156596.47;;;5.36;96.74
7940;BME280;4015;48.888;9.226;2023-04-21T01:49:30;156586.25;;;5.32;96.68
7940;BME280;4015;48.888;9.226;2023-04-21T01:51:55;156590.06;;;5.34;96.47
7940;BME280;4015;48.888;9.226;2023-04-21T01:54:21;156582.44;;;5.31;96.43
7940;BME280;4015;48.888;9.226;2023-04-21T01:56:46;156578.66;;;5.29;96.30
7940;BME280;4015;48.888;9.226;2023-04-21T01:59:11;156574.78;;;5.28;96.35
7940;BME280;4015;48.888;9.226;2023-04-21T02:01:37;156567.19;;;5.25;96.30
7940;BME280;4015;48.888;9.226;2023-04-21T02:04:03;156555.72;;;5.20;96.23
7940;BME280;4015;48.888;9.226;2023-04-21T02:06:29;156548.09;;;5.17;96.27
7940;BME280;4015;48.888;9.226;2023-04-21T02:08:56;156539.16;;;5.13;96.31
7940;BME280;4015;48.888;9.226;2023-04-21T02:11:21;156531.56;;;5.10;96.17
7940;BME280;4015;48.888;9.226;2023-04-21T02:13:49;156525.16;;;5.08;95.72
7940;BME280;4015;48.888;9.226;2023-04-21T02:16:14;156512.47;;;5.03;95.93
7940;BME280;4015;48.888;9.226;2023-04-21T02:18:39;156506.09;;;5.00;96.11
7940;BME280;4015;48.888;9.226;2023-04-21T02:21:05;156487.00;;;4.93;96.35
7940;BME280;4015;48.888;9.226;2023-04-21T02:23:31;156483.19;;;4.91;96.56
7940;BME280;4015;48.888;9.226;2023-04-21T02:25:56;156483.19;;;4.91;96.43
7940;BME280;4015;48.888;9.226;2023-04-21T02:28:22;156470.47;;;4.86;96.45
7940;BME280;4015;48.888;9.226;2023-04-21T02:30:47;156457.72;;;4.81;96.51
7940;BME280;4015;48.888;9.226;2023-04-21T02:33:12;156425.91;;;4.68;97.16
7940;BME280;4015;48.888;9.226;2023-04-21T02:35:38;156432.25;;;4.71;96.79
7940;BME280;4015;48.888;9.226;2023-04-21T02:38:03;156409.38;;;4.62;96.94
7940;BME280;4015;48.888;9.226;2023-04-21T02:40:31;156434.84;;;4.72;96.57
7940;BME280;4015;48.888;9.226;2023-04-21T02:42:57;156437.38;;;4.73;96.36
7940;BME280;4015;48.888;9.226;2023-04-21T02:45:22;156441.19;;;4.74;96.03
7940;BME280;4015;48.888;9.226;2023-04-21T02:47:47;156434.84;;;4.72;95.81
7940;BME280;4015;48.888;9.226;2023-04-21T02:50:13;156434.84;;;4.72;96.69
7940;BME280;4015;48.888;9.226;2023-04-21T02:52:38;156410.66;;;4.62;96.45
7940;BME280;4015;48.888;9.226;2023-04-21T02:55:04;156413.19;;;4.63;97.04
7940;BME280;4015;48.888;9.226;2023-04-21T02:57:29;156403.03;;;4.59;97.06
7940;BME280;4015;48.888;9.226;2023-04-21T02:59:54;156404.31;;;4.59;97.13
7940;BME280;4015;48.888;9.226;2023-04-21T03:02:20;156363.59;;;4.43;97.33
7940;BME280;4015;48.888;9.226;2023-04-21T03:04:45;156336.84;;;4.32;98.19
7940;BME280;4015;48.888;9.226;2023-04-21T03:07:11;156344.50;;;4.36;97.43
7940;BME280;4015;48.888;9.226;2023-04-21T03:09:38;156322.84;;;4.27;98.17
7940;BME280;4015;48.888;9.226;2023-04-21T03:12:03;156324.19;;;4.27;98.34
7940;BME280;4015;48.888;9.226;2023-04-21T03:14:28;156327.97;;;4.29;98.80
7940;BME280;4015;48.888;9.226;2023-04-21T03:16:54;156284.72;;;4.12;99.41
7940;BME280;4015;48.888;9.226;2023-04-21T03:19:19;156275.78;;;4.08;99.36
7940;BME280;4015;48.888;9.226;2023-04-21T03:21:44;156263.13;;;4.03;99.26
7940;BME280;4015;48.888;9.226;2023-04-21T03:24:10;156221.13;;;3.86;98.93
7940;BME280;4015;48.888;9.226;2023-04-21T03:26:38;156252.94;;;3.99;99.41
7940;BME280;4015;48.888;9.226;2023-04-21T03:29:03;156264.38;;;4.03;98.89
7940;BME280;4015;48.888;9.226;2023-04-21T03:31:28;156287.25;;;4.13;98.30
7940;BME280;4015;48.888;9.226;2023-04-21T03:33:54;156273.25;;;4.07;98.16
7940;BME280;4015;48.888;9.226;2023-04-21T03:36:19;156296.19;;;4.16;97.83
7940;BME280;4015;48.888;9.226;2023-04-21T03:38:45;156279.66;;;4.10;97.48
7940;BME280;4015;48.888;9.226;2023-04-21T03:41:10;156274.53;;;4.07;98.00
7940;BME280;4015;48.888;9.226;2023-04-21T03:43:35;156291.06;;;4.14;97.22
7940;BME280;4015;48.888;9.226;2023-04-21T03:46:00;156298.72;;;4.17;96.95
7940;BME280;4015;48.888;9.226;2023-04-21T03:48:27;156311.44;;;4.22;96.74
7940;BME280;4015;48.888;9.226;2023-04-21T03:50:52;156273.25;;;4.07;97.10
7940;BME280;4015;48.888;9.226;2023-04-21T03:53:17;156249.13;;;3.97;97.08
7940;BME280;4015;48.888;9.226;2023-04-21T03:55:43;156273.25;;;4.07;97.38
7940;BME280;4015;48.888;9.226;2023-04-21T03:58:12;156292.31;;;4.15;96.91
7940;BME280;4015;48.888;9.226;2023-04-21T04:00:38;156298.72;;;4.17;96.88
7940;BME280;4015;48.888;9.226;2023-04-21T04:03:03;156307.59;;;4.21;96.77
7940;BME280;4015;48.888;9.226;2023-04-21T04:05:28;156282.19;;;4.11;96.96
7940;BME280;4015;48.888;9.226;2023-04-21T04:07:54;156282.19;;;4.11;96.87
7940;BME280;4015;48.888;9.226;2023-04-21T04:10:19;156296.19;;;4.16;96.73
7940;BME280;4015;48.888;9.226;2023-04-21T04:12:45;156288.53;;;4.13;97.37
7940;BME280;4015;48.888;9.226;2023-04-21T04:15:10;156277.13;;;4.09;97.47
7940;BME280;4015;48.888;9.226;2023-04-21T04:17:35;156280.91;;;4.10;97.68
7940;BME280;4015;48.888;9.226;2023-04-21T04:20:01;156270.72;;;4.06;97.76
7940;BME280;4015;48.888;9.226;2023-04-21T04:22:28;156260.53;;;4.02;98.44
7940;BME280;4015;48.888;9.226;2023-04-21T04:24:54;156261.84;;;4.02;98.08
7940;BME280;4015;48.888;9.226;2023-04-21T04:27:19;156280.91;;;4.10;98.47
7940;BME280;4015;48.888;9.226;2023-04-21T04:29:44;156294.91;;;4.16;98.67
7940;BME280;4015;48.888;9.226;2023-04-21T04:32:10;156298.72;;;4.17;98.86
7940;BME280;4015;48.888;9.226;2023-04-21T04:34:36;156269.47;;;4.05;99.26
7940;BME280;4015;48.888;9.226;2023-04-21T04:37:02;156261.84;;;4.02;99.76
7940;BME280;4015;48.888;9.226;2023-04-21T04:39:28;156245.28;;;3.96;100.00
7940;BME280;4015;48.888;9.226;2023-04-21T04:41:53;156251.66;;;3.98;100.00
7940;BME280;4015;48.888;9.226;2023-04-21T04:44:18;156274.53;;;4.07;100.00
7940;BME280;4015;48.888;9.226;2023-04-21T04:46:44;156315.25;;;4.24;100.00
7940;BME280;4015;48.888;9.226;2023-04-21T04:49:09;156312.72;;;4.23;100.00
7940;BME280;4015;48.888;9.226;2023-04-21T04:51:35;156340.72;;;4.34;100.00
7940;BME280;4015;48.888;9.226;2023-04-21T04:54:00;156359.78;;;4.42;100.00
7940;BME280;4015;48.888;9.226;2023-04-21T04:56:26;156372.50;;;4.47;100.00
7940;BME280;4015;48.888;9.226;2023-04-21T04:58:51;156385.19;;;4.52;100.00
7940;BME280;4015;48.888;9.226;2023-04-21T05:01:16;156387.78;;;4.53;99.93
7940;BME280;4015;48.888;9.226;2023-04-21T05:03:43;156428.47;;;4.69;100.00
7940;BME280;4015;48.888;9.226;2023-04-21T05:06:09;156453.91;;;4.79;99.56
7940;BME280;4015;48.888;9.226;2023-04-21T05:08:34;156462.81;;;4.83;99.23
7940;BME280;4015;48.888;9.226;2023-04-21T05:11:00;156471.72;;;4.86;99.52
7940;BME280;4015;48.888;9.226;2023-04-21T05:13:26;156457.72;;;4.81;99.62
7940;BME280;4015;48.888;9.226;2023-04-21T05:16:00;156492.06;;;4.95;99.43
7940;BME280;4015;48.888;9.226;2023-04-21T05:18:27;156504.81;;;5.00;99.12
7940;BME280;4015;48.888;9.226;2023-04-21T05:20:52;156490.81;;;4.94;98.96
7940;BME280;4015;48.888;9.226;2023-04-21T05:23:18;156515.00;;;5.04;98.72
7940;BME280;4015;48.888;9.226;2023-04-21T05:25:44;156515.00;;;5.04;98.82
7940;BME280;4015;48.888;9.226;2023-04-21T05:28:10;156506.09;;;5.00;98.88
7940;BME280;4015;48.888;9.226;2023-04-21T05:30:35;156526.44;;;5.08;99.44
7940;BME280;4015;48.888;9.226;2023-04-21T05:33:01;156559.56;;;5.22;99.60
7940;BME280;4015;48.888;9.226;2023-04-21T05:35:29;156560.84;;;5.22;99.01
7940;BME280;4015;48.888;9.226;2023-04-21T05:37:54;156544.28;;;5.16;98.79
7940;BME280;4015;48.888;9.226;2023-04-21T05:40:20;156536.63;;;5.12;98.65
7940;BME280;4015;48.888;9.226;2023-04-21T05:42:45;156527.69;;;5.09;98.78
7940;BME280;4015;48.888;9.226;2023-04-21T05:45:11;156544.28;;;5.16;99.22
7940;BME280;4015;48.888;9.226;2023-04-21T05:47:36;156569.72;;;5.26;99.11
7940;BME280;4015;48.888;9.226;2023-04-21T05:50:03;156564.63;;;5.24;98.86
7940;BME280;4015;48.888;9.226;2023-04-21T05:52:28;156563.38;;;5.23;99.25
7940;BME280;4015;48.888;9.226;2023-04-21T05:54:54;156562.09;;;5.23;99.73
7940;BME280;4015;48.888;9.226;2023-04-21T05:57:19;156563.38;;;5.23;100.00
7940;BME280;4015;48.888;9.226;2023-04-21T05:59:45;156559.56;;;5.22;100.00
7940;BME280;4015;48.888;9.226;2023-04-21T06:02:10;156601.53;;;5.38;100.00
7940;BME280;4015;48.888;9.226;2023-04-21T06:04:36;156610.47;;;5.42;99.85
7940;BME280;4015;48.888;9.226;2023-04-21T06:07:08;156649.91;;;5.58;99.78
7940;BME280;4015;48.888;9.226;2023-04-21T06:09:37;156704.69;;;5.80;99.62
7940;BME280;4015;48.888;9.226;2023-04-21T06:12:02;156698.28;;;5.77;99.55
7940;BME280;4015;48.888;9.226;2023-04-21T06:14:28;156709.75;;;5.82;99.10
7940;BME280;4015;48.888;9.226;2023-04-21T06:16:53;156767.13;;;6.05;98.13
7940;BME280;4015;48.888;9.226;2023-04-21T06:19:18;156814.25;;;6.24;97.20
7940;BME280;4015;48.888;9.226;2023-04-21T06:21:44;156837.16;;;6.33;96.84
7940;BME280;4015;48.888;9.226;2023-04-21T06:24:09;156869.00;;;6.45;96.62
7940;BME280;4015;48.888;9.226;2023-04-21T06:26:35;156866.47;;;6.44;96.77
7940;BME280;4015;48.888;9.226;2023-04-21T06:29:00;156927.63;;;6.69;96.10
7940;BME280;4015;48.888;9.226;2023-04-21T06:31:25;157011.69;;;7.02;95.42
7940;BME280;4015;48.888;9.226;2023-04-21T06:33:51;157025.72;;;7.08;94.54
7940;BME280;4015;48.888;9.226;2023-04-21T06:36:16;156991.31;;;6.94;94.08
7940;BME280;4015;48.888;9.226;2023-04-21T06:38:41;157024.44;;;7.08;94.41
7940;BME280;4015;48.888;9.226;2023-04-21T06:41:08;156987.50;;;6.93;94.79
7940;BME280;4015;48.888;9.226;2023-04-21T06:43:33;157065.25;;;7.24;94.09
7940;BME280;4015;48.888;9.226;2023-04-21T06:45:58;157081.81;;;7.30;93.24
7940;BME280;4015;48.888;9.226;2023-04-21T06:48:24;157186.31;;;7.72;94.10
7940;BME280;4015;48.888;9.226;2023-04-21T06:50:51;157326.59;;;8.28;90.85
7940;BME280;4015;48.888;9.226;2023-04-21T06:53:16;157470.78;;;8.86;88.72
7940;BME280;4015;48.888;9.226;2023-04-21T06:55:43;157486.09;;;8.92;88.26
7940;BME280;4015;48.888;9.226;2023-04-21T06:58:08;157484.84;;;8.91;87.95
7940;BME280;4015;48.888;9.226;2023-04-21T07:00:34;157458.06;;;8.81;88.51
7940;BME280;4015;48.888;9.226;2023-04-21T07:02:59;157526.97;;;9.08;88.98
7940;BME280;4015;48.888;9.226;2023-04-21T07:05:25;157544.81;;;9.15;87.25
7940;BME280;4015;48.888;9.226;2023-04-21T07:07:50;157535.91;;;9.12;87.27
7940;BME280;4015;48.888;9.226;2023-04-21T07:10:15;157440.22;;;8.74;87.18
7940;BME280;4015;48.888;9.226;2023-04-21T07:12:44;157450.41;;;8.78;87.34
7940;BME280;4015;48.888;9.226;2023-04-21T07:15:10;157487.44;;;8.93;87.52
7940;BME280;4015;48.888;9.226;2023-04-21T07:17:35;157463.16;;;8.83;89.06
7940;BME280;4015;48.888;9.226;2023-04-21T07:20:01;157436.34;;;8.72;87.64
7940;BME280;4015;48.888;9.226;2023-04-21T07:22:26;157481.03;;;8.90;87.74
7940;BME280;4015;48.888;9.226;2023-04-21T07:24:51;157449.13;;;8.77;87.92
7940;BME280;4015;48.888;9.226;2023-04-21T07:27:17;157391.69;;;8.54;89.13
7940;BME280;4015;48.888;9.226;2023-04-21T07:29:43;157359.81;;;8.42;90.43
7940;BME280;4015;48.888;9.226;2023-04-21T07:32:08;157413.41;;;8.63;90.12
7940;BME280;4015;48.888;9.226;2023-04-21T07:34:34;157423.59;;;8.67;89.74
7940;BME280;4015;48.888;9.226;2023-04-21T07:36:59;157459.34;;;8.81;89.18
7940;BME280;4015;48.888;9.226;2023-04-21T07:39:25;157606.09;;;9.40;86.85
7940;BME280;4015;48.888;9.226;2023-04-21T07:41:50;157588.22;;;9.33;87.00
7940;BME280;4015;48.888;9.226;2023-04-21T07:44:15;157653.31;;;9.59;86.63
7940;BME280;4015;48.888;9.226;2023-04-21T07:46:41;157703.09;;;9.79;86.30
7940;BME280;4015;48.888;9.226;2023-04-21T07:49:06;157706.91;;;9.80;85.78
7940;BME280;4015;48.888;9.226;2023-04-21T07:51:32;157735.03;;;9.91;85.78
7940;BME280;4015;48.888;9.226;2023-04-21T07:53:57;157819.38;;;10.25;84.69
7940;BME280;4015;48.888;9.226;2023-04-21T07:56:23;157864.03;;;10.43;82.89
7940;BME280;4015;48.888;9.226;2023-04-21T07:58:48;157842.34;;;10.34;83.12
7940;BME280;4015;48.888;9.226;2023-04-21T08:01:14;157926.63;;;10.68;82.77
7940;BME280;4015;48.888;9.226;2023-04-21T08:03:39;158054.41;;;11.19;78.94
7940;BME280;4015;48.888;9.226;2023-04-21T08:06:05;158042.94;;;11.14;79.23
7940;BME280;4015;48.888;9.226;2023-04-21T08:08:30;158271.75;;;12.05;78.72
7940;BME280;4015;48.888;9.226;2023-04-21T08:10:56;158285.81;;;12.11;77.27
7940;BME280;4015;48.888;9.226;2023-04-21T08:13:21;158298.63;;;12.16;74.17
7940;BME280;4015;48.888;9.226;2023-04-21T08:15:52;158193.72;;;11.74;75.78
7940;BME280;4015;48.888;9.226;2023-04-21T08:18:18;158273.03;;;12.06;76.57
7940;BME280;4015;48.888;9.226;2023-04-21T08:20:44;158422.66;;;12.65;73.62
7940;BME280;4015;48.888;9.226;2023-04-21T08:23:11;158556.97;;;13.19;72.62
7940;BME280;4015;48.888;9.226;2023-04-21T08:25:36;158691.41;;;13.72;71.16
7940;BME280;4015;48.888;9.226;2023-04-21T08:28:01;158710.59;;;13.80;72.43
7940;BME280;4015;48.888;9.226;2023-04-21T08:30:27;158617.16;;;13.43;71.49
7940;BME280;4015;48.888;9.226;2023-04-21T08:32:52;158464.91;;;12.82;72.08
7940;BME280;4015;48.888;9.226;2023-04-21T08:35:18;158377.91;;;12.48;75.13
7940;BME280;4015;48.888;9.226;2023-04-21T08:37:43;158523.72;;;13.06;75.58
7940;BME280;4015;48.888;9.226;2023-04-21T08:40:10;158686.31;;;13.70;73.74
7940;BME280;4015;48.888;9.226;2023-04-21T08:42:37;158875.78;;;14.46;70.97
7940;BME280;4015;48.888;9.226;2023-04-21T08:45:03;159219.13;;;15.82;66.25
7940;BME280;4015;48.888;9.226;2023-04-21T08:47:29;159290.94;;;16.11;66.35
7940;BME280;4015;48.888;9.226;2023-04-21T08:49:56;159255.06;;;15.97;65.19
7940;BME280;4015;48.888;9.226;2023-04-21T08:52:21;159261.44;;;15.99;66.55
7940;BME280;4015;48.888;9.226;2023-04-21T08:54:47;159508.94;;;16.97;64.05
7940;BME280;4015;48.888;9.226;2023-04-21T08:57:16;159579.44;;;17.25;64.01
7940;BME280;4015;48.888;9.226;2023-04-21T08:59:42;159480.72;;;16.86;63.81
7940;BME280;4015;48.888;9.226;2023-04-21T09:02:12;159483.25;;;16.87;64.62
7940;BME280;4015;48.888;9.226;2023-04-21T09:04:44;159728.28;;;17.85;60.66
7940;BME280;4015;48.888;9.226;2023-04-21T09:07:10;159705.22;;;17.75;59.96
7940;BME280;4015;48.888;9.226;2023-04-21T09:09:54;159762.97;;;17.98;59.74
7940;BME280;4015;48.888;9.226;2023-04-21T09:12:20;159870.72;;;18.41;60.07
7940;BME280;4015;48.888;9.226;2023-04-21T09:14:46;159931.03;;;18.65;57.49
7940;BME280;4015;48.888;9.226;2023-04-21T09:17:15;159845.06;;;18.31;58.45
7940;BME280;4015;48.888;9.226;2023-04-21T09:19:40;159780.91;;;18.05;58.37
7940;BME280;4015;48.888;9.226;2023-04-21T09:22:06;160014.56;;;18.98;57.98
7940;BME280;4015;48.888;9.226;2023-04-21T09:24:31;160071.03;;;19.21;55.86
7940;BME280;4015;48.888;9.226;2023-04-21T09:26:57;160163.50;;;19.57;55.50
7940;BME280;4015;48.888;9.226;2023-04-21T09:29:26;159910.53;;;18.57;56.53
7940;BME280;4015;48.888;9.226;2023-04-21T09:31:51;160146.81;;;19.51;55.69
7940;BME280;4015;48.888;9.226;2023-04-21T09:34:19;160121.09;;;19.40;57.14
7940;BME280;4015;48.888;9.226;2023-04-21T09:36:45;160200.78;;;19.72;54.53
7940;BME280;4015;48.888;9.226;2023-04-21T09:39:11;160008.13;;;18.96;55.07
7940;BME280;4015;48.888;9.226;2023-04-21T09:41:37;160202.06;;;19.73;54.86
7940;BME280;4015;48.888;9.226;2023-04-21T09:44:02;160380.66;;;20.43;56.54
7940;BME280;4015;48.888;9.226;2023-04-21T09:46:35;160470.59;;;20.79;54.22
7940;BME280;4015;48.888;9.226;2023-04-21T09:49:01;160563.16;;;21.16;54.15
7940;BME280;4015;48.888;9.226;2023-04-21T09:51:28;160504.03;;;20.92;54.08
7940;BME280;4015;48.888;9.226;2023-04-21T09:53:59;160546.44;;;21.09;53.49
7940;BME280;4015;48.888;9.226;2023-04-21T09:56:26;160509.19;;;20.94;55.16
7940;BME280;4015;48.888;9.226;2023-04-21T09:58:53;160352.38;;;20.32;52.52
7940;BME280;4015;48.888;9.226;2023-04-21T10:01:23;160262.44;;;19.97;55.48
7940;BME280;4015;48.888;9.226;2023-04-21T10:03:51;160473.19;;;20.80;54.46
7940;BME280;4015;48.888;9.226;2023-04-21T10:06:17;160618.50;;;21.38;52.18
7940;BME280;4015;48.888;9.226;2023-04-21T10:08:43;160622.34;;;21.39;53.27
7940;BME280;4015;48.888;9.226;2023-04-21T10:11:09;160916.84;;;22.56;49.82
7940;BME280;4015;48.888;9.226;2023-04-21T10:13:36;160627.47;;;21.41;53.80
7940;BME280;4015;48.888;9.226;2023-04-21T10:16:06;160677.59;;;21.61;51.74
7940;BME280;4015;48.888;9.226;2023-04-21T10:18:41;160668.63;;;21.58;53.35
7940;BME280;4015;48.888;9.226;2023-04-21T10:21:08;160622.34;;;21.39;53.69
7940;BME280;4015;48.888;9.226;2023-04-21T10:23:50;160968.31;;;22.76;50.01
7940;BME280;4015;48.888;9.226;2023-04-21T10:26:26;160806.22;;;22.12;50.46
7940;BME280;4015;48.888;9.226;2023-04-21T10:28:59;160806.22;;;22.12;50.05
7940;BME280;4015;48.888;9.226;2023-04-21T10:39:10;161303.00;;;24.09;47.52
7940;BME280;4015;48.888;9.226;2023-04-21T10:41:42;161279.78;;;24.00;50.08
7940;BME280;4015;48.888;9.226;2023-04-21T10:44:12;161152.34;;;23.49;50.72
7940;BME280;4015;48.888;9.226;2023-04-21T10:46:49;161058.41;;;23.12;49.94
7940;BME280;4015;48.888;9.226;2023-04-21T10:49:29;161140.78;;;23.45;50.27
7940;BME280;4015;48.888;9.226;2023-04-21T10:57:18;161180.66;;;23.60;48.06
7940;BME280;4015;48.888;9.226;2023-04-21T10:59:45;161209.03;;;23.72;48.41
7940;BME280;4015;48.888;9.226;2023-04-21T11:02:12;161340.31;;;24.23;47.78
7940;BME280;4015;48.888;9.226;2023-04-21T11:04:39;161403.44;;;24.48;45.55
7940;BME280;4015;48.888;9.226;2023-04-21T11:07:09;161425.31;;;24.57;47.12
7940;BME280;4015;48.888;9.226;2023-04-21T11:09:36;161505.16;;;24.89;47.05
7940;BME280;4015;48.888;9.226;2023-04-21T11:12:07;161197.44;;;23.67;46.17
7940;BME280;4015;48.888;9.226;2023-04-21T11:14:34;160923.28;;;22.58;50.12
7940;BME280;4015;48.888;9.226;2023-04-21T11:17:00;161006.94;;;22.92;48.89
7940;BME280;4015;48.888;9.226;2023-04-21T11:19:26;161106.00;;;23.31;48.98
7940;BME280;4015;48.888;9.226;2023-04-21T11:21:52;161269.53;;;23.95;48.57
7940;BME280;4015;48.888;9.226;2023-04-21T11:24:20;161318.44;;;24.15;46.78
7940;BME280;4015;48.888;9.226;2023-04-21T11:26:45;161518.03;;;24.94;48.96
7940;BME280;4015;48.888;9.226;2023-04-21T11:29:11;161497.44;;;24.86;46.82
7940;BME280;4015;48.888;9.226;2023-04-21T11:31:38;161447.22;;;24.66;47.76
7940;BME280;4015;48.888;9.226;2023-04-21T11:34:05;161587.66;;;25.21;46.53
7940;BME280;4015;48.888;9.226;2023-04-21T11:36:42;161478.13;;;24.78;45.11
7940;BME280;4015;48.888;9.226;2023-04-21T11:39:09;161376.38;;;24.38;46.54
7940;BME280;4015;48.888;9.226;2023-04-21T11:41:35;161346.72;;;24.26;45.71
7940;BME280;4015;48.888;9.226;2023-04-21T11:44:02;161394.41;;;24.45;46.75
7940;BME280;4015;48.888;9.226;2023-04-21T11:46:28;161534.78;;;25.00;45.96
7940;BME280;4015;48.888;9.226;2023-04-21T11:49:00;161561.88;;;25.11;45.36
7940;BME280;4015;48.888;9.226;2023-04-21T11:51:26;161691.97;;;25.63;45.04
7940;BME280;4015;48.888;9.226;2023-04-21T11:53:57;161643.03;;;25.43;46.42
7940;BME280;4015;48.888;9.226;2023-04-21T11:56:23;161613.38;;;25.32;47.50
7940;BME280;4015;48.888;9.226;2023-04-21T11:58:49;161693.25;;;25.63;45.69
7940;BME280;4015;48.888;9.226;2023-04-21T12:01:15;161556.75;;;25.09;46.55
7940;BME280;4015;48.888;9.226;2023-04-21T12:03:41;161529.63;;;24.98;48.07
7940;BME280;4015;48.888;9.226;2023-04-21T12:06:07;161750.00;;;25.86;45.78
7940;BME280;4015;48.888;9.226;2023-04-21T12:08:32;161771.91;;;25.94;46.10
7940;BME280;4015;48.888;9.226;2023-04-21T12:10:58;161780.94;;;25.98;44.63
7940;BME280;4015;48.888;9.226;2023-04-21T12:13:26;161819.56;;;26.13;45.16
7940;BME280;4015;48.888;9.226;2023-04-21T12:15:52;161837.59;;;26.20;44.51
7940;BME280;4015;48.888;9.226;2023-04-21T12:18:17;161801.53;;;26.06;44.97
7940;BME280;4015;48.888;9.226;2023-04-21T12:20:49;161942.06;;;26.61;44.88
7940;BME280;4015;48.888;9.226;2023-04-21T12:23:15;161980.69;;;26.77;43.33
7940;BME280;4015;48.888;9.226;2023-04-21T12:25:41;161704.84;;;25.68;45.21
7940;BME280;4015;48.888;9.226;2023-04-21T12:28:07;161685.53;;;25.60;46.59
7940;BME280;4015;48.888;9.226;2023-04-21T12:30:33;161546.44;;;25.05;44.27
7940;BME280;4015;48.888;9.226;2023-04-21T12:32:58;161788.63;;;26.01;45.09
7940;BME280;4015;48.888;9.226;2023-04-21T12:35:24;161822.13;;;26.14;45.13
7940;BME280;4015;48.888;9.226;2023-04-21T12:37:50;161702.28;;;25.67;43.17
7940;BME280;4015;48.888;9.226;2023-04-21T12:40:15;161845.34;;;26.23;43.43
7940;BME280;4015;48.888;9.226;2023-04-21T12:42:41;162016.81;;;26.91;42.21
7940;BME280;4015;48.888;9.226;2023-04-21T12:45:06;162156.06;;;27.46;42.15
7940;BME280;4015;48.888;9.226;2023-04-21T12:47:33;162027.09;;;26.95;42.84
7940;BME280;4015;48.888;9.226;2023-04-21T12:49:58;162021.97;;;26.93;44.43
7940;BME280;4015;48.888;9.226;2023-04-21T12:52:24;162212.88;;;27.68;43.96
7940;BME280;4015;48.888;9.226;2023-04-21T12:54:49;162078.75;;;27.15;43.35
7940;BME280;4015;48.888;9.226;2023-04-21T12:57:14;161994.88;;;26.82;44.21
7940;BME280;4015;48.888;9.226;2023-04-21T12:59:40;162108.38;;;27.27;44.17
7940;BME280;4015;48.888;9.226;2023-04-21T13:02:05;162234.78;;;27.77;43.35
7940;BME280;4015;48.888;9.226;2023-04-21T13:04:31;162247.69;;;27.82;42.37
7940;BME280;4015;48.888;9.226;2023-04-21T13:06:56;162230.91;;;27.76;41.62
7940;BME280;4015;48.888;9.226;2023-04-21T13:09:22;162181.88;;;27.56;40.95
7940;BME280;4015;48.888;9.226;2023-04-21T13:11:47;162205.06;;;27.65;41.07
7940;BME280;4015;48.888;9.226;2023-04-21T13:14:12;162159.97;;;27.48;42.96
7940;BME280;4015;48.888;9.226;2023-04-21T13:16:39;162123.84;;;27.33;42.71
7940;BME280;4015;48.888;9.226;2023-04-21T13:19:05;162246.41;;;27.82;42.56
7940;BME280;4015;48.888;9.226;2023-04-21T13:21:30;162196.06;;;27.62;43.57
7940;BME280;4015;48.888;9.226;2023-04-21T13:23:56;162301.88;;;28.04;42.68
7940;BME280;4015;48.888;9.226;2023-04-21T13:26:22;162277.34;;;27.94;42.01